createdAt,value
2018-04-09T00:02:13.563Z,26.17
2018-04-09T00:04:41.408Z,25.83
2018-04-09T00:07:09.299Z,25.20
2018-04-09T00:09:37.219Z,24.87
2018-04-09T00:12:05.423Z,25.20
2018-04-09T00:14:33.587Z,26.20
2018-04-09T00:17:01.564Z,32.67
2018-04-09T00:19:29.385Z,26.03
2018-04-09T00:21:57.244Z,24.97
2018-04-09T00:24:25.363Z,25.73
2018-04-09T00:26:53.187Z,26.43
2018-04-09T00:29:21.610Z,23.90
2018-04-09T00:31:49.476Z,23.63
2018-04-09T00:34:17.881Z,23.20
2018-04-09T00:36:45.763Z,23.77
2018-04-09T00:39:13.608Z,24.17
2018-04-09T00:41:41.541Z,25.47
2018-04-09T00:44:11.026Z,25.90
2018-04-09T00:46:39.448Z,23.87
2018-04-09T00:49:07.291Z,23.60
2018-04-09T00:51:35.459Z,26.97
2018-04-09T00:54:03.722Z,27.03
2018-04-09T00:56:31.915Z,27.10
2018-04-09T00:58:59.975Z,26.30
2018-04-09T01:01:27.818Z,26.60
2018-04-09T01:03:56.133Z,27.30
2018-04-09T01:06:23.999Z,27.20
2018-04-09T01:08:51.839Z,31.77
2018-04-09T01:11:19.675Z,26.93
2018-04-09T01:13:47.544Z,26.70
2018-04-09T01:16:15.395Z,27.07
2018-04-09T01:18:43.228Z,25.57
2018-04-09T01:21:11.095Z,25.03
2018-04-09T01:23:38.972Z,24.10
2018-04-09T01:26:06.830Z,26.33
2018-04-09T01:28:34.678Z,25.77
2018-04-09T01:31:02.588Z,28.03
2018-04-09T01:33:30.466Z,25.03
2018-04-09T01:35:58.324Z,24.10
2018-04-09T01:38:26.164Z,23.30
2018-04-09T01:40:53.995Z,22.93
2018-04-09T01:43:21.863Z,24.23
2018-04-09T01:45:49.743Z,24.03
2018-04-09T01:48:17.567Z,23.73
2018-04-09T01:50:45.426Z,23.60
2018-04-09T01:53:13.369Z,21.47
2018-04-09T01:55:41.262Z,22.80
2018-04-09T01:58:09.403Z,22.97
2018-04-09T02:00:37.223Z,21.80
2018-04-09T02:03:05.071Z,23.67
2018-04-09T02:05:32.910Z,22.80
2018-04-09T02:08:00.731Z,22.60
2018-04-09T02:10:28.595Z,22.50
2018-04-09T02:12:56.462Z,22.10
2018-04-09T02:15:24.299Z,23.67
2018-04-09T02:17:52.143Z,23.77
2018-04-09T02:20:20.034Z,23.67
2018-04-09T02:22:48.607Z,23.80
2018-04-09T02:25:16.432Z,23.07
2018-04-09T02:27:44.357Z,24.63
2018-04-09T02:30:12.195Z,24.47
2018-04-09T02:32:40.016Z,24.97
2018-04-09T02:35:08.826Z,24.07
2018-04-09T02:37:36.647Z,22.67
2018-04-09T02:40:04.491Z,23.63
2018-04-09T02:42:32.331Z,24.40
2018-04-09T02:45:00.175Z,24.10
2018-04-09T02:47:28.026Z,25.43
2018-04-09T02:49:55.899Z,25.87
2018-04-09T02:52:23.742Z,23.90
2018-04-09T02:54:51.621Z,24.57
2018-04-09T02:57:19.594Z,25.87
2018-04-09T02:59:47.432Z,25.20
2018-04-09T03:02:15.280Z,25.97
2018-04-09T03:04:43.151Z,26.00
2018-04-09T03:07:11.015Z,26.43
2018-04-09T03:09:38.868Z,26.47
2018-04-09T03:12:06.740Z,26.40
2018-04-09T03:14:35.651Z,26.53
2018-04-09T03:17:03.500Z,27.00
2018-04-09T03:19:31.377Z,25.10
2018-04-09T03:21:59.224Z,28.00
2018-04-09T03:24:27.072Z,25.30
2018-04-09T03:26:54.968Z,25.43
2018-04-09T03:29:23.274Z,26.53
2018-04-09T03:31:51.119Z,26.50
2018-04-09T03:34:19.003Z,24.90
2018-04-09T03:36:46.908Z,24.50
2018-04-09T03:39:14.757Z,25.23
2018-04-09T03:41:42.623Z,27.23
2018-04-09T03:44:10.467Z,27.57
2018-04-09T03:46:38.292Z,26.37
2018-04-09T03:49:06.237Z,26.07
2018-04-09T03:51:34.091Z,26.77
2018-04-09T03:54:01.943Z,26.60
2018-04-09T03:56:29.767Z,27.07
2018-04-09T03:58:57.619Z,26.10
2018-04-09T04:01:25.504Z,27.10
2018-04-09T04:03:53.340Z,27.50
2018-04-09T04:06:21.196Z,29.10
2018-04-09T04:08:49.031Z,27.30
2018-04-09T04:11:16.923Z,28.20
2018-04-09T04:13:44.791Z,27.90
2018-04-09T04:16:18.698Z,28.70
2018-04-09T04:18:48.475Z,27.97
2018-04-09T04:21:22.476Z,27.13
2018-04-09T04:23:50.336Z,27.90
2018-04-09T04:26:18.216Z,26.80
2018-04-09T04:28:46.035Z,27.90
2018-04-09T04:31:13.919Z,28.10
2018-04-09T04:33:41.765Z,29.50
2018-04-09T04:36:09.603Z,29.30
2018-04-09T04:38:37.442Z,30.30
2018-04-09T04:41:05.321Z,31.40
2018-04-09T04:43:33.156Z,30.23
2018-04-09T04:46:01.002Z,29.50
2018-04-09T04:48:28.859Z,29.10
2018-04-09T04:50:56.711Z,28.77
2018-04-09T04:53:24.596Z,28.47
2018-04-09T04:55:52.427Z,28.90
2018-04-09T04:58:20.334Z,27.60
2018-04-09T05:00:48.182Z,27.17
2018-04-09T05:03:16.026Z,28.00
2018-04-09T05:05:43.902Z,27.23
2018-04-09T05:08:11.782Z,29.67
2018-04-09T05:10:39.668Z,29.00
2018-04-09T05:13:14.426Z,30.33
2018-04-09T05:15:42.305Z,26.87
2018-04-09T05:18:10.172Z,28.57
2018-04-09T05:20:38.055Z,23.70
2018-04-09T05:23:05.918Z,26.30
2018-04-09T05:25:33.771Z,23.40
2018-04-09T05:28:01.639Z,23.87
2018-04-09T05:30:29.496Z,22.50
2018-04-09T05:32:57.394Z,21.50
2018-04-09T05:35:25.224Z,22.33
2018-04-09T05:37:53.080Z,23.30
2018-04-09T05:40:20.967Z,23.87
2018-04-09T05:42:48.809Z,23.33
2018-04-09T05:45:16.669Z,24.63
2018-04-09T05:47:44.528Z,24.70
2018-04-09T05:50:12.479Z,25.90
2018-04-09T05:52:40.315Z,24.63
2018-04-09T05:55:08.171Z,25.27
2018-04-09T05:57:36.043Z,25.40
2018-04-09T06:00:03.925Z,25.43
2018-04-09T06:02:31.781Z,25.37
2018-04-09T06:04:59.619Z,25.73
2018-04-09T06:07:27.491Z,25.43
2018-04-09T06:09:55.323Z,25.17
2018-04-09T06:12:23.178Z,25.60
2018-04-09T06:14:51.078Z,24.80
2018-04-09T06:17:18.924Z,24.70
2018-04-09T06:19:46.896Z,27.80
2018-04-09T06:22:14.795Z,25.37
2018-04-09T06:24:42.651Z,26.13
2018-04-09T06:27:10.507Z,27.07
2018-04-09T06:29:38.355Z,26.87
2018-04-09T06:32:06.245Z,26.63
2018-04-09T06:34:34.097Z,31.00
2018-04-09T06:37:02.248Z,24.63
2018-04-09T06:39:30.091Z,26.90
2018-04-09T06:41:57.951Z,24.50
2018-04-09T06:44:26.108Z,24.50
2018-04-09T06:46:53.967Z,24.30
2018-04-09T06:49:21.834Z,24.17
2018-04-09T06:51:49.702Z,25.00
2018-04-09T06:54:17.565Z,23.63
2018-04-09T06:56:45.438Z,24.30
2018-04-09T06:59:13.348Z,24.63
2018-04-09T07:01:41.220Z,22.63
2018-04-09T07:04:09.104Z,25.00
2018-04-09T07:06:37.007Z,26.73
2018-04-09T07:09:04.940Z,24.80
2018-04-09T07:11:32.788Z,23.30
2018-04-09T07:14:00.661Z,22.27
2018-04-09T07:16:28.510Z,25.60
2018-04-09T07:18:56.762Z,23.13
2018-04-09T07:21:24.618Z,22.80
2018-04-09T07:23:52.467Z,23.43
2018-04-09T07:26:20.319Z,23.60
2018-04-09T07:28:49.065Z,23.00
2018-04-09T07:31:16.973Z,22.77
2018-04-09T07:33:44.889Z,22.33
2018-04-09T07:36:12.839Z,23.17
2018-04-09T07:38:40.749Z,21.13
2018-04-09T07:41:08.616Z,22.07
2018-04-09T07:43:37.463Z,20.83
2018-04-09T07:46:05.380Z,20.57
2018-04-09T07:48:33.318Z,19.50
2018-04-09T07:51:01.249Z,20.40
2018-04-09T07:53:29.104Z,18.77
2018-04-09T07:55:56.943Z,19.20
2018-04-09T07:58:24.807Z,16.90
2018-04-09T08:00:52.647Z,18.40
2018-04-09T08:03:20.522Z,18.07
2018-04-09T08:05:55.350Z,17.00
2018-04-09T08:08:23.232Z,15.83
2018-04-09T08:10:51.150Z,18.30
2018-04-09T08:13:19.143Z,21.10
2018-04-09T08:15:47.008Z,15.27
2018-04-09T08:18:14.908Z,16.97
2018-04-09T08:20:42.762Z,14.83
2018-04-09T08:23:10.681Z,20.03
2018-04-09T08:25:38.631Z,18.10
2018-04-09T08:28:06.548Z,16.57
2018-04-09T08:30:34.421Z,14.73
2018-04-09T08:33:02.291Z,14.30
2018-04-09T08:35:30.280Z,14.10
2018-04-09T08:37:58.127Z,14.60
2018-04-09T08:40:26.199Z,12.93
2018-04-09T08:42:54.069Z,13.83
2018-04-09T08:45:22.047Z,32.00
2018-04-09T08:47:49.935Z,15.20
2018-04-09T08:50:17.824Z,14.20
2018-04-09T08:52:45.728Z,13.47
2018-04-09T08:55:13.605Z,17.40
2018-04-09T08:57:41.603Z,16.20
2018-04-09T09:00:09.469Z,16.60
2018-04-09T09:02:37.340Z,14.77
2018-04-09T09:05:05.403Z,18.60
2018-04-09T09:07:33.239Z,15.47
2018-04-09T09:10:01.197Z,18.67
2018-04-09T09:12:29.043Z,27.03
2018-04-09T09:14:56.947Z,16.30
2018-04-09T09:17:24.787Z,17.17
2018-04-09T09:19:52.632Z,17.03
2018-04-09T09:22:20.506Z,22.90
2018-04-09T09:24:48.343Z,21.70
2018-04-09T09:27:16.291Z,18.70
2018-04-09T09:29:44.166Z,20.00
2018-04-09T09:32:12.055Z,24.97
2018-04-09T09:34:39.911Z,19.10
2018-04-09T09:37:07.767Z,23.20
2018-04-09T09:39:35.692Z,15.97
2018-04-09T09:42:03.537Z,17.00
2018-04-09T09:44:31.394Z,18.50
2018-04-09T09:46:59.268Z,20.63
2018-04-09T09:49:27.159Z,15.23
2018-04-09T09:51:54.977Z,18.00
2018-04-09T09:54:22.898Z,22.33
2018-04-09T09:56:50.755Z,17.73
2018-04-09T09:59:18.644Z,27.37
2018-04-09T10:01:46.578Z,22.17
2018-04-09T10:04:14.459Z,32.17
2018-04-09T10:06:42.396Z,15.97
2018-04-09T10:09:10.367Z,14.60
2018-04-09T10:11:38.336Z,15.43
2018-04-09T10:14:06.245Z,15.53
2018-04-09T10:16:34.111Z,15.70
2018-04-09T10:19:02.016Z,15.70
2018-04-09T10:21:29.889Z,16.43
2018-04-09T10:23:57.796Z,16.20
2018-04-09T10:26:25.837Z,14.80
2018-04-09T10:28:53.824Z,15.73
2018-04-09T10:31:21.688Z,19.77
2018-04-09T10:33:49.660Z,15.97
2018-04-09T10:36:17.526Z,14.80
2018-04-09T10:38:45.424Z,15.33
2018-04-09T10:41:13.303Z,14.17
2018-04-09T10:43:41.145Z,16.47
2018-04-09T10:46:09.888Z,17.83
2018-04-09T10:48:37.751Z,24.27
2018-04-09T10:51:05.655Z,12.97
2018-04-09T10:53:33.526Z,13.10
2018-04-09T10:56:01.440Z,18.00
2018-04-09T10:58:29.282Z,15.97
2018-04-09T11:00:57.156Z,19.63
2018-04-09T11:03:25.968Z,16.13
2018-04-09T11:05:53.826Z,17.80
2018-04-09T11:08:21.707Z,13.30
2018-04-09T11:10:49.815Z,15.80
2018-04-09T11:13:17.677Z,15.60
2018-04-09T11:15:45.557Z,12.50
2018-04-09T11:18:13.448Z,16.40
2018-04-09T11:20:41.308Z,12.83
2018-04-09T11:23:09.177Z,12.47
2018-04-09T11:25:37.075Z,12.50
2018-04-09T11:28:04.910Z,12.57
2018-04-09T11:30:32.789Z,10.83
2018-04-09T11:33:00.949Z,14.57
2018-04-09T11:35:28.872Z,12.20
2018-04-09T11:37:56.752Z,12.50
2018-04-09T11:40:24.594Z,13.83
2018-04-09T11:42:52.439Z,12.40
2018-04-09T11:45:20.348Z,12.10
2018-04-09T11:47:48.223Z,14.07
2018-04-09T11:50:16.107Z,12.40
2018-04-09T11:52:44.769Z,12.27
2018-04-09T11:55:12.671Z,13.10
2018-04-09T11:57:40.520Z,16.17
2018-04-09T12:00:08.419Z,14.87
2018-04-09T12:02:36.274Z,14.90
2018-04-09T12:05:04.207Z,12.50
2018-04-09T12:07:32.069Z,12.60
2018-04-09T12:09:59.893Z,12.10
2018-04-09T12:12:27.807Z,32.20
2018-04-09T12:14:55.699Z,20.90
2018-04-09T12:17:23.578Z,19.30
2018-04-09T12:19:51.511Z,12.57
2018-04-09T12:22:19.395Z,17.70
2018-04-09T12:24:47.235Z,11.60
2018-04-09T12:27:15.134Z,10.53
2018-04-09T12:29:43.022Z,11.30
2018-04-09T12:32:10.900Z,10.60
2018-04-09T12:34:38.734Z,11.00
2018-04-09T12:37:06.644Z,11.67
2018-04-09T12:39:34.497Z,11.03
2018-04-09T12:42:02.353Z,10.90
2018-04-09T12:44:30.289Z,12.17
2018-04-09T12:46:58.130Z,12.70
2018-04-09T12:49:25.975Z,12.20
2018-04-09T12:51:53.909Z,15.97
2018-04-09T12:54:21.835Z,12.13
2018-04-09T12:56:49.736Z,12.33
2018-04-09T12:59:17.641Z,12.50
2018-04-09T13:01:45.538Z,12.10
2018-04-09T13:04:13.390Z,13.30
2018-04-09T13:06:41.325Z,12.90
2018-04-09T13:09:10.074Z,12.67
2018-04-09T13:11:38.093Z,11.20
2018-04-09T13:14:05.981Z,12.50
2018-04-09T13:16:33.867Z,11.70
2018-04-09T13:19:01.741Z,11.63
2018-04-09T13:21:29.613Z,12.07
2018-04-09T13:23:57.472Z,12.00
2018-04-09T13:26:25.376Z,11.67
2018-04-09T13:28:53.257Z,11.67
2018-04-09T13:31:21.102Z,12.10
2018-04-09T13:33:48.966Z,13.70
2018-04-09T13:36:16.874Z,11.97
2018-04-09T13:38:44.789Z,13.30
2018-04-09T13:41:12.691Z,13.00
2018-04-09T13:43:40.570Z,13.57
2018-04-09T13:46:08.551Z,11.70
2018-04-09T13:48:43.307Z,11.93
2018-04-09T13:51:11.175Z,14.10
2018-04-09T13:53:39.048Z,12.27
2018-04-09T13:56:06.909Z,19.20
2018-04-09T13:58:34.769Z,11.20
2018-04-09T14:01:02.609Z,13.40
2018-04-09T14:03:30.515Z,11.20
2018-04-09T14:05:58.366Z,11.97
2018-04-09T14:08:26.245Z,10.77
2018-04-09T14:10:54.139Z,13.20
2018-04-09T14:13:21.997Z,12.33
2018-04-09T14:15:49.851Z,10.80
2018-04-09T14:18:17.735Z,18.97
2018-04-09T14:20:45.605Z,12.20
2018-04-09T14:23:13.474Z,11.90
2018-04-09T14:25:41.925Z,11.27
2018-04-09T14:28:09.785Z,11.40
2018-04-09T14:30:37.629Z,12.13
2018-04-09T14:33:05.491Z,12.87
2018-04-09T14:35:33.353Z,13.00
2018-04-09T14:38:01.201Z,17.87
2018-04-09T14:40:29.105Z,14.80
2018-04-09T14:42:56.933Z,13.80
2018-04-09T14:45:24.833Z,13.23
2018-04-09T14:47:52.717Z,12.80
2018-04-09T14:50:20.565Z,13.33
2018-04-09T14:52:48.398Z,13.80
2018-04-09T14:55:16.298Z,12.67
2018-04-09T14:57:44.166Z,12.87
2018-04-09T15:00:12.041Z,14.50
2018-04-09T15:02:39.905Z,11.63
2018-04-09T15:05:07.754Z,13.03
2018-04-09T15:07:35.585Z,12.50
2018-04-09T15:10:03.441Z,12.90
2018-04-09T15:12:31.314Z,12.80
2018-04-09T15:14:59.403Z,12.80
2018-04-09T15:17:27.289Z,14.30
2018-04-09T15:19:55.117Z,12.83
2018-04-09T15:22:23.661Z,14.23
2018-04-09T15:24:51.625Z,14.67
2018-04-09T15:27:19.509Z,13.87
2018-04-09T15:29:47.351Z,14.90
2018-04-09T15:32:15.223Z,14.90
2018-04-09T15:34:43.092Z,13.07
2018-04-09T15:37:10.964Z,11.40
2018-04-09T15:39:38.837Z,13.23
2018-04-09T15:42:06.728Z,12.43
2018-04-09T15:44:34.597Z,12.03
2018-04-09T15:47:02.483Z,13.67
2018-04-09T15:49:30.325Z,14.13
2018-04-09T15:51:58.261Z,10.90
2018-04-09T15:54:26.127Z,12.30
2018-04-09T15:56:54.015Z,11.20
2018-04-09T15:59:21.994Z,11.03
2018-04-09T16:01:49.966Z,11.27
2018-04-09T16:04:17.923Z,11.23
2018-04-09T16:06:45.919Z,11.90
2018-04-09T16:09:13.835Z,9.30
2018-04-09T16:11:41.697Z,10.37
2018-04-09T16:14:09.632Z,11.67
2018-04-09T16:16:37.502Z,12.00
2018-04-09T16:19:05.357Z,10.10
2018-04-09T16:21:33.334Z,10.13
2018-04-09T16:24:01.279Z,11.10
2018-04-09T16:26:29.202Z,10.30
2018-04-09T16:28:57.093Z,10.23
2018-04-09T16:31:25.026Z,9.93
2018-04-09T16:33:52.885Z,10.20
2018-04-09T16:36:20.795Z,10.20
2018-04-09T16:38:48.688Z,10.80
2018-04-09T16:41:16.553Z,13.83
2018-04-09T16:43:44.485Z,11.20
2018-04-09T16:46:12.458Z,11.30
2018-04-09T16:48:40.426Z,12.90
2018-04-09T16:51:08.345Z,10.93
2018-04-09T16:53:36.270Z,10.77
2018-04-09T16:56:04.211Z,10.80
2018-04-09T16:58:32.136Z,13.30
2018-04-09T17:01:00.114Z,10.83
2018-04-09T17:03:27.993Z,11.40
2018-04-09T17:05:55.905Z,12.10
2018-04-09T17:08:23.845Z,10.80
2018-04-09T17:10:51.770Z,11.80
2018-04-09T17:13:19.754Z,11.47
2018-04-09T17:15:47.654Z,11.47
2018-04-09T17:18:15.702Z,11.80
2018-04-09T17:20:43.637Z,12.07
2018-04-09T17:23:11.541Z,12.50
2018-04-09T17:25:39.426Z,12.40
2018-04-09T17:28:07.376Z,11.90
2018-04-09T17:30:35.407Z,14.60
2018-04-09T17:33:03.315Z,12.63
2018-04-09T17:35:31.246Z,14.10
2018-04-09T17:37:59.193Z,13.23
2018-04-09T17:40:27.186Z,14.47
2018-04-09T17:42:55.105Z,12.87
2018-04-09T17:45:23.125Z,15.60
2018-04-09T17:47:51.476Z,14.47
2018-04-09T17:50:19.497Z,13.70
2018-04-09T17:52:47.566Z,14.20
2018-04-09T17:55:15.799Z,12.47
2018-04-09T17:57:44.610Z,13.20
2018-04-09T18:00:13.115Z,12.90
2018-04-09T18:02:41.578Z,13.30
2018-04-09T18:05:09.532Z,12.87
2018-04-09T18:07:37.548Z,12.43
2018-04-09T18:10:05.437Z,12.90
2018-04-09T18:12:33.326Z,12.20
2018-04-09T18:15:01.189Z,30.03
2018-04-09T18:17:29.112Z,14.20
2018-04-09T18:19:56.978Z,13.43
2018-04-09T18:22:24.879Z,13.20
2018-04-09T18:24:52.931Z,14.23
2018-04-09T18:27:21.172Z,13.07
2018-04-09T18:29:49.164Z,13.57
2018-04-09T18:32:17.028Z,16.70
2018-04-09T18:34:44.922Z,14.53
2018-04-09T18:37:13.057Z,14.87
2018-04-09T18:39:40.910Z,41.10
2018-04-09T18:42:08.761Z,16.50
2018-04-09T18:44:36.656Z,15.70
2018-04-09T18:47:04.549Z,16.60
2018-04-09T18:49:32.385Z,15.83
2018-04-09T18:52:00.247Z,17.70
2018-04-09T18:54:28.079Z,18.70
2018-04-09T18:56:56.002Z,15.40
2018-04-09T18:59:23.880Z,19.90
2018-04-09T19:01:52.271Z,17.63
2018-04-09T19:04:20.141Z,15.40
2018-04-09T19:06:47.997Z,51.20
2018-04-09T19:09:16.654Z,14.50
2018-04-09T19:11:46.977Z,17.90
2018-04-09T19:14:17.404Z,19.10
2018-04-09T19:19:20.265Z,17.13
2018-04-09T19:21:48.655Z,16.60
2018-04-09T19:24:19.970Z,20.50
2018-04-09T19:26:49.562Z,22.00
2018-04-09T19:29:18.891Z,16.67
2018-04-09T19:31:50.291Z,33.40
2018-04-09T19:34:19.231Z,21.23
2018-04-09T19:36:57.879Z,21.40
2018-04-09T19:39:36.134Z,18.50
2018-04-09T19:42:04.133Z,20.07
2018-04-09T19:44:31.981Z,20.97
2018-04-09T19:46:59.922Z,21.30
2018-04-09T19:49:27.894Z,45.23
2018-04-09T19:52:17.293Z,33.73
2018-04-09T19:54:45.334Z,26.97
2018-04-09T19:57:14.078Z,25.60
2018-04-09T19:59:44.623Z,23.23
2018-04-09T20:02:12.536Z,25.43
2018-04-09T20:04:40.374Z,17.30
2018-04-09T20:07:08.321Z,19.60
2018-04-09T20:09:39.418Z,22.90
2018-04-09T20:12:08.336Z,39.10
2018-04-09T20:14:37.198Z,19.33
2018-04-09T20:17:06.662Z,18.00
2018-04-09T20:19:35.652Z,20.60
2018-04-09T20:22:03.544Z,15.57
2018-04-09T20:24:31.442Z,23.40
2018-04-09T20:26:59.364Z,17.10
2018-04-09T20:29:27.200Z,19.50
2018-04-09T20:31:55.025Z,16.50
2018-04-09T20:34:23.002Z,13.73
2018-04-09T20:36:50.927Z,14.77
2018-04-09T20:39:18.845Z,14.17
2018-04-09T20:41:46.749Z,14.30
2018-04-09T20:44:14.599Z,13.13
2018-04-09T20:46:42.462Z,15.57
2018-04-09T20:49:10.424Z,12.77
2018-04-09T20:51:38.383Z,14.10
2018-04-09T20:54:06.242Z,15.90
2018-04-09T20:56:34.146Z,15.50
2018-04-09T20:59:01.999Z,14.50
2018-04-09T21:01:29.825Z,14.53
2018-04-09T21:03:57.740Z,15.37
2018-04-09T21:06:25.569Z,17.13
2018-04-09T21:08:53.399Z,16.27
2018-04-09T21:11:21.278Z,15.20
2018-04-09T21:13:49.115Z,16.77
2018-04-09T21:16:16.950Z,18.03
2018-04-09T21:18:44.836Z,16.10
2018-04-09T21:21:12.664Z,16.70
2018-04-09T21:23:40.503Z,16.80
2018-04-09T21:26:08.385Z,16.60
2018-04-09T21:28:36.218Z,16.13
2018-04-09T21:31:04.095Z,17.30
2018-04-09T21:33:31.970Z,16.13
2018-04-09T21:35:59.801Z,17.17
2018-04-09T21:38:27.763Z,16.87
2018-04-09T21:40:55.644Z,18.30
2018-04-09T21:43:23.615Z,18.60
2018-04-09T21:45:51.441Z,18.93
2018-04-09T21:48:19.342Z,18.80
2018-04-09T21:50:47.310Z,17.27
2018-04-09T21:53:15.193Z,18.53
2018-04-09T21:55:43.105Z,18.50
2018-04-09T21:58:10.941Z,18.17
2018-04-09T22:00:38.768Z,18.37
2018-04-09T22:03:06.645Z,19.47
2018-04-09T22:05:34.487Z,18.43
2018-04-09T22:08:02.324Z,18.07
2018-04-09T22:10:30.201Z,19.90
2018-04-09T22:12:58.038Z,18.90
2018-04-09T22:15:25.977Z,21.40
2018-04-09T22:17:53.930Z,20.90
2018-04-09T22:20:21.890Z,20.43
2018-04-09T22:22:49.799Z,21.17
2018-04-09T22:25:17.731Z,21.30
2018-04-09T22:27:45.573Z,23.33
2018-04-09T22:30:13.413Z,26.73
2018-04-09T22:32:41.289Z,24.40
2018-04-09T22:35:09.157Z,23.70
2018-04-09T22:37:37.053Z,22.60
2018-04-09T22:40:04.945Z,22.77
2018-04-09T22:42:32.784Z,22.37
2018-04-09T22:45:01.597Z,22.77
2018-04-09T22:47:29.486Z,21.20
2018-04-09T22:49:57.333Z,21.97
2018-04-09T22:52:25.432Z,24.80
2018-04-09T22:54:53.357Z,22.50
2018-04-09T22:57:21.241Z,23.30
2018-04-09T22:59:49.141Z,22.60
2018-04-09T23:02:17.085Z,22.50
2018-04-09T23:04:44.919Z,23.50
2018-04-09T23:07:12.774Z,23.60
2018-04-09T23:09:40.678Z,23.80
2018-04-09T23:12:08.518Z,22.80
2018-04-09T23:14:36.646Z,23.43
2018-04-09T23:17:04.557Z,23.57
2018-04-09T23:19:32.385Z,24.20
2018-04-09T23:22:00.226Z,25.97
2018-04-09T23:24:28.113Z,23.87
2018-04-09T23:26:55.949Z,24.93
2018-04-09T23:29:23.775Z,25.67
2018-04-09T23:31:51.864Z,24.20
2018-04-09T23:34:19.691Z,25.90
2018-04-09T23:36:47.525Z,27.40
2018-04-09T23:39:15.400Z,25.73
2018-04-09T23:41:43.246Z,25.53
2018-04-09T23:44:11.073Z,24.90
2018-04-09T23:46:38.942Z,26.40
2018-04-09T23:49:06.925Z,24.47
2018-04-09T23:51:34.792Z,26.87
2018-04-09T23:54:02.689Z,26.73
2018-04-09T23:56:30.518Z,27.47
2018-04-09T23:58:58.344Z,26.27
